Time;durP1;ratioP1;P1;durP2;ratioP2;P2;SDS_P1;SDS_P2;PMS_P1;PMS_P2;Temp;Humidity;BMP_temperature;BMP_pressure;BME280_temperature;BME280_humidity;BME280_pressure;Samples;Min_cycle;Max_cycle;Signal;HPM_P1;HPM_P2
2022/09/19 00:01:25;;;;;;;;;;;;;;;;;;4941758;28;20738;-61
2022/09/19 00:03:53;;;;;;;;;;;;;;;;;;4957040;28;20393;-61
2022/09/19 00:06:21;;;;;;;;;;;;;;;;;;4953944;28;20048;-59
2022/09/19 00:08:46;;;;;;;;;;;;;;;;;;4941000;28;20441;-59
2022/09/19 00:11:12;;;;;;;;;;;;;;;;;;4957030;28;20062;-59
2022/09/19 00:13:44;;;;;;;;;;;;;;;;;;4925989;28;19958;-59
2022/09/19 00:16:09;;;;;;;;;;;;;;;;;;4940278;28;20001;-59
2022/09/19 00:18:34;;;;;;;;;;;;;;;;;;4929734;28;19922;-62
2022/09/19 00:21:02;;;;;;;;;;;;;;;;;;4955025;28;20069;-63
2022/09/19 00:26:19;;;;;;;;;;;;;;;;;;4959071;28;19963;-61
2022/09/19 00:28:47;;;;;;;;;;;;;;;;;;4926594;28;19966;-64
2022/09/19 00:31:17;;;;;;;;;;;;;;;;;;4941448;28;19918;-63
2022/09/19 00:33:42;;;;;;;;;;;;;;;;;;4956008;28;20294;-63
2022/09/19 00:36:07;;;;;;;;;;;;;;;;;;4927014;28;19970;-62
2022/09/19 00:38:35;;;;;;;;;;;;;;;;;;4926366;28;19965;-62
2022/09/19 00:41:05;;;;;;;;;;;;;;;;;;4924177;28;19930;-61
2022/09/19 00:43:31;;;;;;;;;;;;;;;;;;4954892;28;19930;-61
2022/09/19 00:45:59;;;;;;;;;;;;;;;;;;4955186;28;19962;-60
2022/09/19 00:48:30;;;;;;;;;;;;;;;;;;4924497;28;19925;-60
2022/09/19 00:50:56;;;;;;;;;;;;;;;;;;4924609;28;21855;-60
2022/09/19 00:53:24;;;;;;;;;;;;;;;;;;4922564;28;20553;-60
2022/09/19 00:55:50;;;;;;;;;;;;;;;;;;4956273;28;20491;-60
2022/09/19 00:58:17;;;;;;;;;;;;;;;;;;4927682;28;19997;-60
2022/09/19 01:00:45;;;;;;;;;;;;;;;;;;4927477;28;19918;-59
2022/09/19 01:03:13;;;;;;;;;;;;;;;;;;4923762;28;20033;-59
2022/09/19 01:05:42;;;;;;;;;;;;;;;;;;4925381;28;19918;-59
2022/09/19 01:08:07;;;;;;;;;;;;;;;;;;4951696;28;19937;-60
2022/09/19 01:10:34;;;;;;;;;;;;;;;;;;4923042;28;19930;-59
2022/09/19 01:13:00;;;;;;;;;;;;;;;;;;4926239;28;20002;-59
2022/09/19 01:15:26;;;;;;;;;;;;;;;;;;4940340;28;19918;-60
2022/09/19 01:17:52;;;;;;;;;;;;;;;;;;4922313;28;19923;-59
2022/09/19 01:20:17;;;;;;;;;;;;;;;;;;4926597;28;19938;-59
2022/09/19 01:22:43;;;;;;;;;;;;;;;;;;4926248;28;19969;-60
2022/09/19 01:25:08;;;;;;;;;;;;;;;;;;4953223;28;20046;-59
2022/09/19 01:27:34;;;;;;;;;;;;;;;;;;4926383;28;19935;-59
2022/09/19 01:29:59;;;;;;;;;;;;;;;;;;4913388;28;19926;-59
2022/09/19 01:32:24;;;;;;;;;;;;;;;;;;4923186;28;19973;-60
2022/09/19 01:34:50;;;;;;;;;;;;;;;;;;4956001;28;19973;-61
2022/09/19 01:37:17;;;;;;;;;;;;;;;;;;4924383;28;20358;-60
2022/09/19 01:39:43;;;;;;;;;;;;;;;;;;4927773;28;20353;-61
2022/09/19 01:42:08;;;;;;;;;;;;;;;;;;4935904;28;21447;-60
2022/09/19 01:44:33;;;;;;;;;;;;;;;;;;4926928;28;20804;-60
2022/09/19 01:47:01;;;;;;;;;;;;;;;;;;4951331;28;19922;-60
2022/09/19 01:49:30;;;;;;;;;;;;;;;;;;4954141;28;19927;-60
2022/09/19 01:52:01;;;;;;;;;;;;;;;;;;4955286;28;20093;-60
2022/09/19 01:54:26;;;;;;;;;;;;;;;;;;4923771;28;19934;-61
2022/09/19 01:56:56;;;;;;;;;;;;;;;;;;4952282;28;19926;-61
2022/09/19 01:59:22;;;;;;;;;;;;;;;;;;4950775;28;20583;-61
2022/09/19 02:01:50;;;;;;;;;;;;;;;;;;4920996;28;19954;-61
2022/09/19 02:04:18;;;;;;;;;;;;;;;;;;4921677;28;19925;-61
2022/09/19 02:06:48;;;;;;;;;;;;;;;;;;4955284;28;19926;-61
2022/09/19 02:09:13;;;;;;;;;;;;;;;;;;4924622;28;19934;-61
2022/09/19 02:11:38;;;;;;;;;;;;;;;;;;4926904;28;19922;-61
2022/09/19 02:14:10;;;;;;;;;;;;;;;;;;4923258;28;19922;-61
2022/09/19 02:16:36;;;;;;;;;;;;;;;;;;4956969;28;19922;-61
2022/09/19 02:19:04;;;;;;;;;;;;;;;;;;4923071;28;19964;-61
2022/09/19 02:21:30;;;;;;;;;;;;;;;;;;4954455;28;20631;-61
2022/09/19 02:23:59;;;;;;;;;;;;;;;;;;4911819;28;19982;-62
2022/09/19 02:26:24;;;;;;;;;;;;;;;;;;4954382;28;19923;-62
2022/09/19 02:28:54;;;;;;;;;;;;;;;;;;4923988;28;19949;-61
2022/09/19 02:31:19;;;;;;;;;;;;;;;;;;4946229;28;20761;-59
2022/09/19 02:33:46;;;;;;;;;;;;;;;;;;4934955;28;19929;-60
2022/09/19 02:36:15;;;;;;;;;;;;;;;;;;4954771;28;21882;-60
2022/09/19 02:38:42;;;;;;;;;;;;;;;;;;4927674;28;19923;-59
2022/09/19 02:41:07;;;;;;;;;;;;;;;;;;4955493;28;20018;-59
2022/09/19 02:43:33;;;;;;;;;;;;;;;;;;4925068;28;20394;-59
2022/09/19 02:46:01;;;;;;;;;;;;;;;;;;4954408;28;20401;-58
2022/09/19 02:48:26;;;;;;;;;;;;;;;;;;4936921;28;20017;-59
2022/09/19 02:50:54;;;;;;;;;;;;;;;;;;4924387;28;19985;-58
2022/09/19 02:53:20;;;;;;;;;;;;;;;;;;4957346;28;19992;-60
2022/09/19 02:55:46;;;;;;;;;;;;;;;;;;4942511;28;20029;-60
2022/09/19 02:58:12;;;;;;;;;;;;;;;;;;4957253;28;19914;-60
2022/09/19 03:00:38;;;;;;;;;;;;;;;;;;4928956;28;19923;-60
2022/09/19 03:04:11;;;;;;;;;;;;;;;;;;4958221;28;19925;-60
2022/09/19 03:05:50;;;;;;;;;;;;;;;;;;4930320;28;19954;-62
2022/09/19 03:11:34;;;;;;;;;;;;;;;;;;4927961;28;20540;-61
2022/09/19 03:14:02;;;;;;;;;;;;;;;;;;4942222;28;20279;-60
2022/09/19 03:19:44;;;;;;;;;;;;;;;;;;4930171;28;19930;-61
2022/09/19 03:22:09;;;;;;;;;;;;;;;;;;4954784;28;19918;-61
2022/09/19 03:24:40;;;;;;;;;;;;;;;;;;4929058;28;20069;-59
2022/09/19 03:27:05;;;;;;;;;;;;;;;;;;4929763;28;19930;-60
2022/09/19 03:29:30;;;;;;;;;;;;;;;;;;4928116;28;19949;-61
2022/09/19 03:31:56;;;;;;;;;;;;;;;;;;4958288;28;19972;-61
2022/09/19 03:34:21;;;;;;;;;;;;;;;;;;4943090;28;20370;-63
2022/09/19 03:36:51;;;;;;;;;;;;;;;;;;4928041;28;19918;-66
2022/09/19 03:39:17;;;;;;;;;;;;;;;;;;4958487;28;19918;-66
2022/09/19 03:41:44;;;;;;;;;;;;;;;;;;4958088;28;19929;-65
2022/09/19 03:44:14;;;;;;;;;;;;;;;;;;4927745;28;19923;-61
2022/09/19 03:46:41;;;;;;;;;;;;;;;;;;4956252;28;20002;-62
2022/09/19 03:49:06;;;;;;;;;;;;;;;;;;4942887;28;19961;-62
2022/09/19 03:51:31;;;;;;;;;;;;;;;;;;4957808;28;19922;-61
2022/09/19 03:57:13;;;;;;;;;;;;;;;;;;4929173;28;19929;-62
2022/09/19 03:59:45;;;;;;;;;;;;;;;;;;4959365;28;19957;-60
2022/09/19 04:02:13;;;;;;;;;;;;;;;;;;4929719;28;19922;-61
2022/09/19 04:04:38;;;;;;;;;;;;;;;;;;4959160;28;21888;-62
2022/09/19 04:07:16;;;;;;;;;;;;;;;;;;4914254;28;19923;-61
2022/09/19 04:09:41;;;;;;;;;;;;;;;;;;4957295;28;19943;-62
2022/09/19 04:12:11;;;;;;;;;;;;;;;;;;4926963;28;19922;-61
2022/09/19 04:14:39;;;;;;;;;;;;;;;;;;4959492;28;19966;-61
2022/09/19 04:17:08;;;;;;;;;;;;;;;;;;4958083;28;19985;-61
2022/09/19 04:19:33;;;;;;;;;;;;;;;;;;4954699;28;19947;-64
2022/09/19 04:22:01;;;;;;;;;;;;;;;;;;4927777;28;19923;-62
2022/09/19 04:24:29;;;;;;;;;;;;;;;;;;4928487;28;19923;-62
2022/09/19 04:27:06;;;;;;;;;;;;;;;;;;4957410;28;19919;-62
2022/09/19 04:29:35;;;;;;;;;;;;;;;;;;4957020;28;19933;-63
2022/09/19 04:32:03;;;;;;;;;;;;;;;;;;4956000;28;19969;-61
2022/09/19 04:34:29;;;;;;;;;;;;;;;;;;4957064;28;19922;-60
2022/09/19 04:36:56;;;;;;;;;;;;;;;;;;4957076;28;20880;-61
2022/09/19 04:39:24;;;;;;;;;;;;;;;;;;4956250;28;20030;-62
2022/09/19 04:41:52;;;;;;;;;;;;;;;;;;4956149;28;20747;-62
2022/09/19 04:44:18;;;;;;;;;;;;;;;;;;4959030;28;19922;-62
2022/09/19 04:46:44;;;;;;;;;;;;;;;;;;4940956;28;19951;-62
2022/09/19 04:49:10;;;;;;;;;;;;;;;;;;4928587;28;20379;-61
2022/09/19 04:51:39;;;;;;;;;;;;;;;;;;4923609;28;20975;-61
2022/09/19 04:54:05;;;;;;;;;;;;;;;;;;4925456;28;20001;-61
2022/09/19 04:56:30;;;;;;;;;;;;;;;;;;4952089;28;19942;-62
2022/09/19 04:58:59;;;;;;;;;;;;;;;;;;4925298;28;19923;-60
2022/09/19 05:01:24;;;;;;;;;;;;;;;;;;4924663;28;19922;-61
2022/09/19 05:03:49;;;;;;;;;;;;;;;;;;4922874;28;20434;-60
2022/09/19 05:06:15;;;;;;;;;;;;;;;;;;4928024;28;19933;-61
2022/09/19 05:08:40;;;;;;;;;;;;;;;;;;4921279;28;19989;-61
2022/09/19 05:11:05;;;;;;;;;;;;;;;;;;4927831;28;19930;-61
2022/09/19 05:13:33;;;;;;;;;;;;;;;;;;4926197;28;19929;-61
2022/09/19 05:16:00;;;;;;;;;;;;;;;;;;4959473;28;19922;-61
2022/09/19 05:18:25;;;;;;;;;;;;;;;;;;4958144;28;20017;-61
2022/09/19 05:20:54;;;;;;;;;;;;;;;;;;4962049;28;19928;-60
2022/09/19 05:23:22;;;;;;;;;;;;;;;;;;4928711;28;19923;-61
2022/09/19 05:25:48;;;;;;;;;;;;;;;;;;4960748;28;19919;-62
2022/09/19 05:28:13;;;;;;;;;;;;;;;;;;4927866;28;19925;-61
2022/09/19 05:30:43;;;;;;;;;;;;;;;;;;4938609;28;19953;-61
2022/09/19 05:33:08;;;;;;;;;;;;;;;;;;4960776;28;19918;-61
2022/09/19 05:35:33;;;;;;;;;;;;;;;;;;4945422;28;19930;-62
2022/09/19 05:37:58;;;;;;;;;;;;;;;;;;4930415;28;19919;-62
2022/09/19 05:40:24;;;;;;;;;;;;;;;;;;4927324;28;19918;-63
2022/09/19 05:43:02;;;;;;;;;;;;;;;;;;4961411;28;19929;-61
2022/09/19 05:45:31;;;;;;;;;;;;;;;;;;4958661;28;19923;-61
2022/09/19 05:48:02;;;;;;;;;;;;;;;;;;4959441;28;19982;-60
2022/09/19 05:50:30;;;;;;;;;;;;;;;;;;4930179;28;19945;-62
2022/09/19 05:55:43;;;;;;;;;;;;;;;;;;4928527;28;19954;-60
2022/09/19 05:58:12;;;;;;;;;;;;;;;;;;4958667;28;20001;-62
2022/09/19 06:00:38;;;;;;;;;;;;;;;;;;4947292;28;20017;-60
2022/09/19 06:03:06;;;;;;;;;;;;;;;;;;4927252;28;19923;-61
2022/09/19 06:05:34;;;;;;;;;;;;;;;;;;4929723;28;19947;-61
2022/09/19 06:07:59;;;;;;;;;;;;;;;;;;4959344;28;19923;-61
2022/09/19 06:10:27;;;;;;;;;;;;;;;;;;4931075;28;20041;-62
2022/09/19 06:12:57;;;;;;;;;;;;;;;;;;4942390;28;19923;-62
2022/09/19 06:15:25;;;;;;;;;;;;;;;;;;4927146;28;19925;-61
2022/09/19 06:17:53;;;;;;;;;;;;;;;;;;4955711;28;21791;-61
2022/09/19 06:20:18;;;;;;;;;;;;;;;;;;4927312;28;19929;-63
2022/09/19 06:22:46;;;;;;;;;;;;;;;;;;4928906;28;19915;-60
2022/09/19 06:25:14;;;;;;;;;;;;;;;;;;4928502;28;19919;-62
2022/09/19 06:27:45;;;;;;;;;;;;;;;;;;4927937;28;19929;-61
2022/09/19 06:30:17;;;;;;;;;;;;;;;;;;4963603;28;19984;-61
2022/09/19 06:32:45;;;;;;;;;;;;;;;;;;4962611;28;20500;-61
2022/09/19 06:35:10;;;;;;;;;;;;;;;;;;4957099;28;20013;-62
2022/09/19 06:37:35;;;;;;;;;;;;;;;;;;4957570;28;20817;-62
2022/09/19 06:40:03;;;;;;;;;;;;;;;;;;4929185;28;21263;-61
2022/09/19 06:42:29;;;;;;;;;;;;;;;;;;4942962;28;19918;-60
2022/09/19 06:44:54;;;;;;;;;;;;;;;;;;4961124;28;19922;-61
2022/09/19 06:47:19;;;;;;;;;;;;;;;;;;4931286;28;19928;-62
2022/09/19 06:49:44;;;;;;;;;;;;;;;;;;4927891;28;20643;-61
2022/09/19 06:52:13;;;;;;;;;;;;;;;;;;4924466;28;21795;-62
2022/09/19 06:54:38;;;;;;;;;;;;;;;;;;4928710;28;19970;-63
2022/09/19 06:57:04;;;;;;;;;;;;;;;;;;4954079;28;20590;-65
2022/09/19 06:59:29;;;;;;;;;;;;;;;;;;4961024;28;20278;-63
2022/09/19 07:01:54;;;;;;;;;;;;;;;;;;4941634;28;20632;-63
2022/09/19 07:04:25;;;;;;;;;;;;;;;;;;4932282;28;20817;-64
2022/09/19 07:06:50;;;;;;;;;;;;;;;;;;4929930;28;19962;-63
2022/09/19 07:09:15;;;;;;;;;;;;;;;;;;4928512;28;20199;-62
2022/09/19 07:11:43;;;;;;;;;;;;;;;;;;4960921;28;19922;-63
2022/09/19 07:14:11;;;;;;;;;;;;;;;;;;4960622;28;19922;-63
2022/09/19 07:16:39;;;;;;;;;;;;;;;;;;4930710;28;20544;-63
2022/09/19 07:19:04;;;;;;;;;;;;;;;;;;4929394;28;19965;-63
2022/09/19 07:21:34;;;;;;;;;;;;;;;;;;4928209;28;20585;-60
2022/09/19 07:24:01;;;;;;;;;;;;;;;;;;4961155;28;19922;-62
2022/09/19 07:26:26;;;;;;;;;;;;;;;;;;4918916;28;19929;-61
2022/09/19 07:28:52;;;;;;;;;;;;;;;;;;4963229;28;19965;-61
2022/09/19 07:31:17;;;;;;;;;;;;;;;;;;4963342;28;20029;-63
2022/09/19 07:33:42;;;;;;;;;;;;;;;;;;4932331;28;19919;-63
2022/09/19 07:36:11;;;;;;;;;;;;;;;;;;4961914;28;19925;-62
2022/09/19 07:38:36;;;;;;;;;;;;;;;;;;4962265;28;19922;-60
2022/09/19 07:41:01;;;;;;;;;;;;;;;;;;4962463;28;19918;-59
2022/09/19 07:43:27;;;;;;;;;;;;;;;;;;4931612;28;20009;-60
2022/09/19 07:45:54;;;;;;;;;;;;;;;;;;4957882;28;20421;-60
2022/09/19 07:48:23;;;;;;;;;;;;;;;;;;4930673;28;19984;-61
2022/09/19 07:50:48;;;;;;;;;;;;;;;;;;4948541;28;20715;-59
2022/09/19 07:53:13;;;;;;;;;;;;;;;;;;4948424;28;20382;-60
2022/09/19 07:55:41;;;;;;;;;;;;;;;;;;4930607;28;19922;-59
2022/09/19 07:58:10;;;;;;;;;;;;;;;;;;4963256;28;19929;-59
2022/09/19 08:00:36;;;;;;;;;;;;;;;;;;4943337;28;19918;-61
2022/09/19 08:03:03;;;;;;;;;;;;;;;;;;4929676;28;19973;-61
2022/09/19 08:05:32;;;;;;;;;;;;;;;;;;4945892;28;19922;-60
2022/09/19 08:07:58;;;;;;;;;;;;;;;;;;4959290;28;20578;-61
2022/09/19 08:10:23;;;;;;;;;;;;;;;;;;4931199;28;19930;-61
2022/09/19 08:12:51;;;;;;;;;;;;;;;;;;4929708;28;19922;-61
2022/09/19 08:15:16;;;;;;;;;;;;;;;;;;4962567;28;19923;-60
2022/09/19 08:17:44;;;;;;;;;;;;;;;;;;4932767;28;20370;-61
2022/09/19 08:20:13;;;;;;;;;;;;;;;;;;4931483;28;19918;-61
2022/09/19 08:22:38;;;;;;;;;;;;;;;;;;4962246;28;20341;-61
2022/09/19 08:25:03;;;;;;;;;;;;;;;;;;4960458;28;19965;-62
2022/09/19 08:27:31;;;;;;;;;;;;;;;;;;4953528;28;19984;-62
2022/09/19 08:29:56;;;;;;;;;;;;;;;;;;4932443;28;19937;-62
2022/09/19 08:32:22;;;;;;;;;;;;;;;;;;4945261;28;19923;-61
2022/09/19 08:34:49;;;;;;;;;;;;;;;;;;4927749;28;19922;-63
2022/09/19 08:37:18;;;;;;;;;;;;;;;;;;4932410;28;20049;-62
2022/09/19 08:40:15;;;;;;;;;;;;;;;;;;4954217;28;19922;-62
2022/09/19 08:42:31;;;;;;;;;;;;;;;;;;4930659;28;19958;-61
2022/09/19 08:44:56;;;;;;;;;;;;;;;;;;4929769;28;20934;-62
2022/09/19 08:47:22;;;;;;;;;;;;;;;;;;4929096;28;19919;-63
2022/09/19 08:49:50;;;;;;;;;;;;;;;;;;4959924;28;19933;-63
2022/09/19 08:52:17;;;;;;;;;;;;;;;;;;4961462;28;19933;-63
2022/09/19 08:54:42;;;;;;;;;;;;;;;;;;4931105;28;20362;-63
2022/09/19 08:57:07;;;;;;;;;;;;;;;;;;4961282;28;19993;-65
2022/09/19 08:59:33;;;;;;;;;;;;;;;;;;4943725;28;19965;-65
2022/09/19 09:01:58;;;;;;;;;;;;;;;;;;4944627;28;19925;-64
2022/09/19 09:04:24;;;;;;;;;;;;;;;;;;4925419;28;19950;-65
2022/09/19 09:06:54;;;;;;;;;;;;;;;;;;4942214;28;19923;-64
2022/09/19 09:09:19;;;;;;;;;;;;;;;;;;4928610;28;20058;-66
2022/09/19 09:11:48;;;;;;;;;;;;;;;;;;4925932;28;19922;-67
2022/09/19 09:14:16;;;;;;;;;;;;;;;;;;4958401;28;20323;-65
2022/09/19 09:16:41;;;;;;;;;;;;;;;;;;4957896;28;19927;-63
2022/09/19 09:19:09;;;;;;;;;;;;;;;;;;4960646;28;19957;-61
2022/09/19 09:21:34;;;;;;;;;;;;;;;;;;4927372;28;19973;-63
2022/09/19 09:24:02;;;;;;;;;;;;;;;;;;4928639;28;19919;-64
2022/09/19 09:26:28;;;;;;;;;;;;;;;;;;4959256;28;21921;-64
2022/09/19 09:28:54;;;;;;;;;;;;;;;;;;4930478;28;19918;-65
2022/09/19 09:31:25;;;;;;;;;;;;;;;;;;4931107;28;19922;-60
2022/09/19 09:37:09;;;;;;;;;;;;;;;;;;4927768;28;19950;-65
2022/09/19 09:39:49;;;;;;;;;;;;;;;;;;4943079;28;19922;-63
2022/09/19 09:42:15;;;;;;;;;;;;;;;;;;4961391;28;19918;-62
2022/09/19 09:44:43;;;;;;;;;;;;;;;;;;4945170;28;21922;-62
2022/09/19 09:47:09;;;;;;;;;;;;;;;;;;4940353;28;19922;-65
2022/09/19 09:49:34;;;;;;;;;;;;;;;;;;4962669;28;19946;-64
2022/09/19 09:51:59;;;;;;;;;;;;;;;;;;4940515;28;21786;-63
2022/09/19 09:57:09;;;;;;;;;;;;;;;;;;4927426;28;19930;-65
2022/09/19 10:05:04;;;;;;;;;;;;;;;;;;4953144;28;20009;-63
2022/09/19 10:07:29;;;;;;;;;;;;;;;;;;4932771;28;19922;-64
2022/09/19 10:09:55;;;;;;;;;;;;;;;;;;4924113;28;19927;-64
2022/09/19 10:12:21;;;;;;;;;;;;;;;;;;4957672;28;20473;-64
2022/09/19 10:14:49;;;;;;;;;;;;;;;;;;4959067;28;19919;-62
2022/09/19 10:17:15;;;;;;;;;;;;;;;;;;4942627;28;20385;-63
2022/09/19 10:19:45;;;;;;;;;;;;;;;;;;4944656;28;19965;-61
2022/09/19 10:22:15;;;;;;;;;;;;;;;;;;4929104;28;19922;-62
2022/09/19 10:24:43;;;;;;;;;;;;;;;;;;4958720;28;19923;-62
2022/09/19 10:27:11;;;;;;;;;;;;;;;;;;4923643;28;20045;-62
2022/09/19 10:29:46;;;;;;;;;;;;;;;;;;4924336;28;19926;-61
2022/09/19 10:32:12;;;;;;;;;;;;;;;;;;4950459;28;20919;-61
2022/09/19 10:34:41;;;;;;;;;;;;;;;;;;4919274;28;20319;-61
2022/09/19 10:37:11;;;;;;;;;;;;;;;;;;4952112;28;19922;-62
2022/09/19 10:39:37;;;;;;;;;;;;;;;;;;4951044;28;19922;-60
2022/09/19 10:42:04;;;;;;;;;;;;;;;;;;4937053;28;20301;-61
2022/09/19 10:44:30;;;;;;;;;;;;;;;;;;4939258;28;19919;-60
2022/09/19 10:46:58;;;;;;;;;;;;;;;;;;4952659;28;19922;-61
2022/09/19 10:49:25;;;;;;;;;;;;;;;;;;4920703;28;20309;-61
2022/09/19 10:51:51;;;;;;;;;;;;;;;;;;4950208;28;20729;-62
2022/09/19 10:54:19;;;;;;;;;;;;;;;;;;4923729;28;20394;-60
2022/09/19 10:56:45;;;;;;;;;;;;;;;;;;4934459;28;20583;-61
2022/09/19 10:59:11;;;;;;;;;;;;;;;;;;4953061;28;19922;-61
2022/09/19 11:01:38;;;;;;;;;;;;;;;;;;4925524;28;21494;-62
2022/09/19 11:04:06;;;;;;;;;;;;;;;;;;4951228;28;19994;-60
2022/09/19 11:06:31;;;;;;;;;;;;;;;;;;4954099;28;19922;-64
2022/09/19 11:08:56;;;;;;;;;;;;;;;;;;4937671;28;19923;-61
2022/09/19 11:11:23;;;;;;;;;;;;;;;;;;4937464;28;19938;-62
2022/09/19 11:13:48;;;;;;;;;;;;;;;;;;4950879;28;19922;-64
2022/09/19 11:16:17;;;;;;;;;;;;;;;;;;4939270;28;19986;-62
2022/09/19 11:18:44;;;;;;;;;;;;;;;;;;4953701;28;19923;-67
2022/09/19 11:21:10;;;;;;;;;;;;;;;;;;4941542;28;19964;-67
2022/09/19 11:23:35;;;;;;;;;;;;;;;;;;4938337;28;21323;-63
2022/09/19 11:26:03;;;;;;;;;;;;;;;;;;4923170;28;20841;-66
2022/09/19 11:28:29;;;;;;;;;;;;;;;;;;4941211;28;19918;-65
2022/09/19 11:30:57;;;;;;;;;;;;;;;;;;4955455;28;20040;-64
2022/09/19 11:33:24;;;;;;;;;;;;;;;;;;4938121;28;20497;-68
2022/09/19 11:35:49;;;;;;;;;;;;;;;;;;4925512;28;20024;-68
2022/09/19 11:38:15;;;;;;;;;;;;;;;;;;4922244;28;19947;-69
2022/09/19 11:40:43;;;;;;;;;;;;;;;;;;4943754;28;19923;-68
2022/09/19 11:43:12;;;;;;;;;;;;;;;;;;4952108;28;19969;-69
2022/09/19 11:45:37;;;;;;;;;;;;;;;;;;4956145;28;19922;-69
2022/09/19 11:48:02;;;;;;;;;;;;;;;;;;4920429;28;19925;-68
2022/09/19 11:50:29;;;;;;;;;;;;;;;;;;4950859;28;20318;-70
2022/09/19 11:52:55;;;;;;;;;;;;;;;;;;4955490;28;19918;-69
2022/09/19 11:55:23;;;;;;;;;;;;;;;;;;4943656;28;19923;-68
2022/09/19 11:57:48;;;;;;;;;;;;;;;;;;4924231;28;19922;-67
2022/09/19 12:00:14;;;;;;;;;;;;;;;;;;4955121;28;19918;-66
2022/09/19 12:02:41;;;;;;;;;;;;;;;;;;4922733;28;19923;-67
2022/09/19 12:05:06;;;;;;;;;;;;;;;;;;4924937;28;19930;-66
2022/09/19 12:07:31;;;;;;;;;;;;;;;;;;4923225;28;19926;-62
2022/09/19 12:09:57;;;;;;;;;;;;;;;;;;4950326;28;20595;-67
2022/09/19 12:12:22;;;;;;;;;;;;;;;;;;4954001;28;19997;-67
2022/09/19 12:14:49;;;;;;;;;;;;;;;;;;4921618;28;19950;-67
2022/09/19 12:17:14;;;;;;;;;;;;;;;;;;4950496;28;20986;-69
2022/09/19 12:19:39;;;;;;;;;;;;;;;;;;4953558;28;19938;-68
2022/09/19 12:22:06;;;;;;;;;;;;;;;;;;4951889;28;19950;-68
2022/09/19 12:27:16;;;;;;;;;;;;;;;;;;4952035;28;19925;-67
2022/09/19 12:29:41;;;;;;;;;;;;;;;;;;4954290;28;20271;-66
2022/09/19 12:32:07;;;;;;;;;;;;;;;;;;4951112;28;21273;-67
2022/09/19 12:34:35;;;;;;;;;;;;;;;;;;4924494;28;20913;-68
2022/09/19 12:37:00;;;;;;;;;;;;;;;;;;4954246;28;19933;-66
2022/09/19 12:39:26;;;;;;;;;;;;;;;;;;4920957;28;19966;-68
2022/09/19 12:41:54;;;;;;;;;;;;;;;;;;4927848;28;20484;-67
2022/09/19 12:44:19;;;;;;;;;;;;;;;;;;4927211;28;20845;-68
2022/09/19 12:46:50;;;;;;;;;;;;;;;;;;4958399;28;19922;-67
2022/09/19 12:49:18;;;;;;;;;;;;;;;;;;4926690;28;20460;-66
2022/09/19 12:51:46;;;;;;;;;;;;;;;;;;4958169;28;20405;-67
2022/09/19 12:54:11;;;;;;;;;;;;;;;;;;4959506;28;19923;-67
2022/09/19 12:56:37;;;;;;;;;;;;;;;;;;4940156;28;19926;-67
2022/09/19 12:59:02;;;;;;;;;;;;;;;;;;4949570;28;19922;-66
2022/09/19 13:01:32;;;;;;;;;;;;;;;;;;4923144;28;20893;-65
2022/09/19 13:04:00;;;;;;;;;;;;;;;;;;4959246;28;20033;-64
2022/09/19 13:06:25;;;;;;;;;;;;;;;;;;4923060;28;19922;-63
2022/09/19 13:08:50;;;;;;;;;;;;;;;;;;4921735;28;19931;-63
2022/09/19 13:11:16;;;;;;;;;;;;;;;;;;4924077;28;19918;-65
2022/09/19 13:13:47;;;;;;;;;;;;;;;;;;4952349;28;19928;-65
2022/09/19 13:16:15;;;;;;;;;;;;;;;;;;4958261;28;20029;-67
2022/09/19 13:23:30;;;;;;;;;;;;;;;;;;4959279;28;21007;-66
2022/09/19 13:24:22;;;;;;;;;;;;;;;;;;4928482;28;21865;-67
2022/09/19 13:26:47;;;;;;;;;;;;;;;;;;4926831;28;19919;-65
2022/09/19 13:29:15;;;;;;;;;;;;;;;;;;4958369;28;20057;-65
2022/09/19 13:31:40;;;;;;;;;;;;;;;;;;4957794;28;20142;-66
2022/09/19 13:34:05;;;;;;;;;;;;;;;;;;4960921;28;20602;-68
2022/09/19 13:36:31;;;;;;;;;;;;;;;;;;4925926;28;19923;-63
2022/09/19 13:38:58;;;;;;;;;;;;;;;;;;4926930;28;19926;-67
2022/09/19 13:41:24;;;;;;;;;;;;;;;;;;4939543;28;19974;-65
2022/09/19 13:43:49;;;;;;;;;;;;;;;;;;4957823;28;19929;-64
2022/09/19 13:46:17;;;;;;;;;;;;;;;;;;4961748;28;19934;-67
2022/09/19 13:48:47;;;;;;;;;;;;;;;;;;4926653;28;19918;-64
2022/09/19 13:51:15;;;;;;;;;;;;;;;;;;4959047;28;19923;-67
2022/09/19 13:53:41;;;;;;;;;;;;;;;;;;4958251;28;19958;-68
2022/09/19 13:56:06;;;;;;;;;;;;;;;;;;4924250;28;21106;-65
2022/09/19 13:58:39;;;;;;;;;;;;;;;;;;4955129;28;19926;-66
2022/09/19 14:01:06;;;;;;;;;;;;;;;;;;4955720;28;19926;-67
2022/09/19 14:03:34;;;;;;;;;;;;;;;;;;4952026;28;19966;-67
2022/09/19 14:06:00;;;;;;;;;;;;;;;;;;4922625;28;20009;-67
2022/09/19 14:08:29;;;;;;;;;;;;;;;;;;4921270;28;19941;-66
2022/09/19 14:10:56;;;;;;;;;;;;;;;;;;4948362;28;19922;-68
2022/09/19 14:13:24;;;;;;;;;;;;;;;;;;4952193;28;19922;-69
2022/09/19 14:15:51;;;;;;;;;;;;;;;;;;4952238;28;19918;-67
2022/09/19 14:18:17;;;;;;;;;;;;;;;;;;4937092;28;19918;-62
2022/09/19 14:20:42;;;;;;;;;;;;;;;;;;4933046;28;20918;-63
2022/09/19 14:23:07;;;;;;;;;;;;;;;;;;4932087;28;20049;-65
2022/09/19 14:25:35;;;;;;;;;;;;;;;;;;4921564;28;22250;-65
2022/09/19 14:28:00;;;;;;;;;;;;;;;;;;4920209;28;20033;-65
2022/09/19 14:30:26;;;;;;;;;;;;;;;;;;4936545;28;19960;-65
2022/09/19 14:32:52;;;;;;;;;;;;;;;;;;4948840;28;19922;-66
2022/09/19 14:35:17;;;;;;;;;;;;;;;;;;4949297;28;19949;-67
2022/09/19 14:37:44;;;;;;;;;;;;;;;;;;4917915;28;19974;-62
2022/09/19 14:40:09;;;;;;;;;;;;;;;;;;4951933;28;19933;-69
2022/09/19 14:42:37;;;;;;;;;;;;;;;;;;4921294;28;19923;-65
2022/09/19 14:45:02;;;;;;;;;;;;;;;;;;4950293;28;19966;-65
2022/09/19 14:47:28;;;;;;;;;;;;;;;;;;4935411;28;19922;-66
2022/09/19 14:49:54;;;;;;;;;;;;;;;;;;4955497;28;19981;-68
2022/09/19 14:52:19;;;;;;;;;;;;;;;;;;4942538;28;20820;-68
2022/09/19 14:58:04;;;;;;;;;;;;;;;;;;4926969;28;19929;-65
2022/09/19 15:00:30;;;;;;;;;;;;;;;;;;4957734;28;19974;-62
2022/09/19 15:02:56;;;;;;;;;;;;;;;;;;4947154;28;19923;-62
2022/09/19 15:05:24;;;;;;;;;;;;;;;;;;4956424;28;19930;-68
2022/09/19 15:07:49;;;;;;;;;;;;;;;;;;4922858;28;19922;-60
2022/09/19 15:10:16;;;;;;;;;;;;;;;;;;4961019;28;20325;-68
2022/09/19 15:12:41;;;;;;;;;;;;;;;;;;4961291;28;19966;-67
2022/09/19 15:15:06;;;;;;;;;;;;;;;;;;4919192;28;19918;-63
2022/09/19 15:17:34;;;;;;;;;;;;;;;;;;4952336;28;19918;-66
2022/09/19 15:20:00;;;;;;;;;;;;;;;;;;4925073;28;19937;-65
2022/09/19 15:22:27;;;;;;;;;;;;;;;;;;4956926;28;19923;-67
2022/09/19 15:24:55;;;;;;;;;;;;;;;;;;4957962;28;19966;-66
2022/09/19 15:27:25;;;;;;;;;;;;;;;;;;4953029;28;20907;-68
2022/09/19 15:29:51;;;;;;;;;;;;;;;;;;4923283;28;19922;-64
2022/09/19 15:32:22;;;;;;;;;;;;;;;;;;4918220;28;19965;-65
2022/09/19 15:34:49;;;;;;;;;;;;;;;;;;4943856;28;19980;-67
2022/09/19 15:37:18;;;;;;;;;;;;;;;;;;4925401;28;19918;-67
2022/09/19 15:39:43;;;;;;;;;;;;;;;;;;4929420;28;19923;-67
2022/09/19 15:42:11;;;;;;;;;;;;;;;;;;4957554;28;19922;-67
2022/09/19 15:44:42;;;;;;;;;;;;;;;;;;4954973;28;20995;-60
2022/09/19 15:47:07;;;;;;;;;;;;;;;;;;4945181;28;20159;-62
2022/09/19 15:49:32;;;;;;;;;;;;;;;;;;4947299;28;19941;-65
2022/09/19 15:52:01;;;;;;;;;;;;;;;;;;4917808;28;20331;-67
2022/09/19 15:54:30;;;;;;;;;;;;;;;;;;4911793;28;19918;-66
2022/09/19 15:56:58;;;;;;;;;;;;;;;;;;4943202;28;19938;-67
2022/09/19 15:59:23;;;;;;;;;;;;;;;;;;4926228;28;19919;-66
2022/09/19 16:01:51;;;;;;;;;;;;;;;;;;4953156;28;19932;-62
2022/09/19 16:04:16;;;;;;;;;;;;;;;;;;4936474;28;20499;-65
2022/09/19 16:09:29;;;;;;;;;;;;;;;;;;4951783;28;20396;-67
2022/09/19 16:11:56;;;;;;;;;;;;;;;;;;4919481;28;19918;-65
2022/09/19 16:14:24;;;;;;;;;;;;;;;;;;4924399;28;20267;-62
2022/09/19 16:16:50;;;;;;;;;;;;;;;;;;4921236;28;19922;-67
2022/09/19 16:19:15;;;;;;;;;;;;;;;;;;4957570;28;19930;-66
2022/09/19 16:21:41;;;;;;;;;;;;;;;;;;4924506;28;19922;-65
2022/09/19 16:24:07;;;;;;;;;;;;;;;;;;4956388;28;20694;-66
2022/09/19 16:26:32;;;;;;;;;;;;;;;;;;4920289;28;19919;-65
2022/09/19 16:29:01;;;;;;;;;;;;;;;;;;4916945;28;19925;-62
2022/09/19 16:31:26;;;;;;;;;;;;;;;;;;4921976;28;19923;-65
2022/09/19 16:33:54;;;;;;;;;;;;;;;;;;4929814;28;20001;-66
2022/09/19 16:36:22;;;;;;;;;;;;;;;;;;4950341;28;19933;-66
2022/09/19 16:38:48;;;;;;;;;;;;;;;;;;4952457;28;19923;-64
2022/09/19 16:41:15;;;;;;;;;;;;;;;;;;4919639;28;19969;-65
2022/09/19 16:43:41;;;;;;;;;;;;;;;;;;4921607;28;19918;-66
2022/09/19 16:46:16;;;;;;;;;;;;;;;;;;4949490;28;20523;-66
2022/09/19 16:48:43;;;;;;;;;;;;;;;;;;4945793;28;20255;-64
2022/09/19 16:51:11;;;;;;;;;;;;;;;;;;4951424;28;19922;-65
2022/09/19 16:53:37;;;;;;;;;;;;;;;;;;4921549;28;19922;-66
2022/09/19 16:56:02;;;;;;;;;;;;;;;;;;4924857;28;20310;-66
2022/09/19 16:58:28;;;;;;;;;;;;;;;;;;4926039;28;20009;-65
2022/09/19 17:00:53;;;;;;;;;;;;;;;;;;4923232;28;19930;-62
2022/09/19 17:03:19;;;;;;;;;;;;;;;;;;4928171;28;19962;-67
2022/09/19 17:05:47;;;;;;;;;;;;;;;;;;4956594;28;19925;-65
2022/09/19 17:08:12;;;;;;;;;;;;;;;;;;4957679;28;19922;-67
2022/09/19 17:10:38;;;;;;;;;;;;;;;;;;4923905;28;19950;-67
2022/09/19 17:13:03;;;;;;;;;;;;;;;;;;4939129;28;19976;-64
2022/09/19 17:15:31;;;;;;;;;;;;;;;;;;4925164;28;19918;-64
2022/09/19 17:17:56;;;;;;;;;;;;;;;;;;4950974;28;19953;-65
2022/09/19 17:20:24;;;;;;;;;;;;;;;;;;4956447;28;19918;-64
2022/09/19 17:22:49;;;;;;;;;;;;;;;;;;4926274;28;20433;-65